sensor_id;sensor_type;location;lat;lon;timestamp;temperature;humidity
46440;DHT22;32138;50.966;6.968;2023-10-19T00:00:59;11.60;99.90
46440;DHT22;32138;50.966;6.968;2023-10-19T00:02:30;11.60;99.90
46440;DHT22;32138;50.966;6.968;2023-10-19T00:04:01;11.60;99.90
46440;DHT22;32138;50.966;6.968;2023-10-19T00:05:32;11.60;99.90
46440;DHT22;32138;50.966;6.968;2023-10-19T00:07:03;11.60;99.90
46440;DHT22;32138;50.966;6.968;2023-10-19T00:08:38;11.70;99.90
46440;DHT22;32138;50.966;6.968;2023-10-19T00:10:12;11.70;99.90
46440;DHT22;32138;50.966;6.968;2023-10-19T00:11:46;11.70;99.90
46440;DHT22;32138;50.966;6.968;2023-10-19T00:13:22;11.70;99.90
46440;DHT22;32138;50.966;6.968;2023-10-19T00:14:53;11.70;99.90
46440;DHT22;32138;50.966;6.968;2023-10-19T00:16:24;11.70;99.90
46440;DHT22;32138;50.966;6.968;2023-10-19T00:18:00;11.70;99.90
46440;DHT22;32138;50.966;6.968;2023-10-19T00:19:46;11.80;99.90
46440;DHT22;32138;50.966;6.968;2023-10-19T00:21:49;11.80;99.90
46440;DHT22;32138;50.966;6.968;2023-10-19T00:23:25;11.80;99.90
46440;DHT22;32138;50.966;6.968;2023-10-19T00:24:59;11.90;99.90
46440;DHT22;32138;50.966;6.968;2023-10-19T00:26:30;11.80;99.90
46440;DHT22;32138;50.966;6.968;2023-10-19T00:28:01;11.80;99.90
46440;DHT22;32138;50.966;6.968;2023-10-19T00:29:34;11.90;99.90
46440;DHT22;32138;50.966;6.968;2023-10-19T00:31:10;11.80;99.90
46440;DHT22;32138;50.966;6.968;2023-10-19T00:32:42;11.80;99.90
46440;DHT22;32138;50.966;6.968;2023-10-19T00:34:13;11.70;99.90
46440;DHT22;32138;50.966;6.968;2023-10-19T00:35:44;11.80;99.90
46440;DHT22;32138;50.966;6.968;2023-10-19T00:37:18;11.90;99.90
46440;DHT22;32138;50.966;6.968;2023-10-19T00:38:56;11.90;99.90
46440;DHT22;32138;50.966;6.968;2023-10-19T00:40:31;12.00;99.90
46440;DHT22;32138;50.966;6.968;2023-10-19T00:42:05;11.90;99.90
46440;DHT22;32138;50.966;6.968;2023-10-19T00:43:40;11.90;99.90
46440;DHT22;32138;50.966;6.968;2023-10-19T00:45:15;11.90;99.90
46440;DHT22;32138;50.966;6.968;2023-10-19T00:46:46;12.00;99.90
46440;DHT22;32138;50.966;6.968;2023-10-19T00:48:20;12.00;99.90
46440;DHT22;32138;50.966;6.968;2023-10-19T00:49:56;11.90;99.90
46440;DHT22;32138;50.966;6.968;2023-10-19T00:51:36;11.90;99.90
46440;DHT22;32138;50.966;6.968;2023-10-19T00:53:07;11.90;99.90
46440;DHT22;32138;50.966;6.968;2023-10-19T00:54:40;11.90;99.90
46440;DHT22;32138;50.966;6.968;2023-10-19T00:56:21;12.00;99.90
46440;DHT22;32138;50.966;6.968;2023-10-19T00:57:54;12.00;99.90
46440;DHT22;32138;50.966;6.968;2023-10-19T00:59:26;12.00;99.90
46440;DHT22;32138;50.966;6.968;2023-10-19T01:01:05;12.00;99.90
46440;DHT22;32138;50.966;6.968;2023-10-19T01:02:40;12.00;99.90
46440;DHT22;32138;50.966;6.968;2023-10-19T01:04:15;12.00;99.90
46440;DHT22;32138;50.966;6.968;2023-10-19T01:05:51;12.00;99.90
46440;DHT22;32138;50.966;6.968;2023-10-19T01:07:28;12.00;99.90
46440;DHT22;32138;50.966;6.968;2023-10-19T01:08:59;12.00;99.90
46440;DHT22;32138;50.966;6.968;2023-10-19T01:10:32;12.10;99.90
46440;DHT22;32138;50.966;6.968;2023-10-19T01:12:03;12.10;99.90
46440;DHT22;32138;50.966;6.968;2023-10-19T01:13:52;12.10;99.90
46440;DHT22;32138;50.966;6.968;2023-10-19T01:15:22;12.10;99.90
46440;DHT22;32138;50.966;6.968;2023-10-19T01:16:59;12.00;99.90
46440;DHT22;32138;50.966;6.968;2023-10-19T01:18:32;12.10;99.90
46440;DHT22;32138;50.966;6.968;2023-10-19T01:20:03;12.20;99.90
46440;DHT22;32138;50.966;6.968;2023-10-19T01:21:42;12.30;99.90
46440;DHT22;32138;50.966;6.968;2023-10-19T01:23:15;12.20;99.90
46440;DHT22;32138;50.966;6.968;2023-10-19T01:24:55;12.20;99.90
46440;DHT22;32138;50.966;6.968;2023-10-19T01:26:26;12.10;99.90
46440;DHT22;32138;50.966;6.968;2023-10-19T01:27:57;12.20;99.90
46440;DHT22;32138;50.966;6.968;2023-10-19T01:29:28;12.30;99.90
46440;DHT22;32138;50.966;6.968;2023-10-19T01:30:59;12.20;99.90
46440;DHT22;32138;50.966;6.968;2023-10-19T01:32:36;12.30;99.90
46440;DHT22;32138;50.966;6.968;2023-10-19T01:34:08;12.30;99.90
46440;DHT22;32138;50.966;6.968;2023-10-19T01:35:40;12.20;99.90
46440;DHT22;32138;50.966;6.968;2023-10-19T01:37:31;12.20;99.90
46440;DHT22;32138;50.966;6.968;2023-10-19T01:39:01;12.30;99.90
46440;DHT22;32138;50.966;6.968;2023-10-19T01:40:39;12.50;99.90
46440;DHT22;32138;50.966;6.968;2023-10-19T01:42:16;12.50;99.90
46440;DHT22;32138;50.966;6.968;2023-10-19T01:43:49;12.60;99.90
46440;DHT22;32138;50.966;6.968;2023-10-19T01:45:23;12.50;99.90
46440;DHT22;32138;50.966;6.968;2023-10-19T01:46:54;12.40;99.90
46440;DHT22;32138;50.966;6.968;2023-10-19T01:48:26;12.40;99.90
46440;DHT22;32138;50.966;6.968;2023-10-19T01:50:04;12.40;99.90
46440;DHT22;32138;50.966;6.968;2023-10-19T01:51:36;12.40;99.90
46440;DHT22;32138;50.966;6.968;2023-10-19T01:53:08;12.40;99.90
46440;DHT22;32138;50.966;6.968;2023-10-19T01:54:48;12.40;99.90
46440;DHT22;32138;50.966;6.968;2023-10-19T01:56:26;12.40;99.90
46440;DHT22;32138;50.966;6.968;2023-10-19T01:57:57;12.40;99.90
46440;DHT22;32138;50.966;6.968;2023-10-19T01:59:29;12.40;99.90
46440;DHT22;32138;50.966;6.968;2023-10-19T02:01:00;12.30;99.90
46440;DHT22;32138;50.966;6.968;2023-10-19T02:02:30;12.30;99.90
46440;DHT22;32138;50.966;6.968;2023-10-19T02:04:05;12.40;99.90
46440;DHT22;32138;50.966;6.968;2023-10-19T02:05:39;12.40;99.90
46440;DHT22;32138;50.966;6.968;2023-10-19T02:07:11;12.40;99.90
46440;DHT22;32138;50.966;6.968;2023-10-19T02:09:01;12.50;99.90
46440;DHT22;32138;50.966;6.968;2023-10-19T02:10:39;12.40;99.90
46440;DHT22;32138;50.966;6.968;2023-10-19T02:12:12;12.40;99.90
46440;DHT22;32138;50.966;6.968;2023-10-19T02:13:46;12.40;99.90
46440;DHT22;32138;50.966;6.968;2023-10-19T02:15:17;12.50;99.90
46440;DHT22;32138;50.966;6.968;2023-10-19T02:16:58;12.50;99.90
46440;DHT22;32138;50.966;6.968;2023-10-19T02:18:30;12.40;99.90
46440;DHT22;32138;50.966;6.968;2023-10-19T02:20:01;12.40;99.90
46440;DHT22;32138;50.966;6.968;2023-10-19T02:21:43;12.40;99.90
46440;DHT22;32138;50.966;6.968;2023-10-19T02:23:18;12.40;99.90
46440;DHT22;32138;50.966;6.968;2023-10-19T02:24:49;12.30;99.90
46440;DHT22;32138;50.966;6.968;2023-10-19T02:26:20;12.40;99.90
46440;DHT22;32138;50.966;6.968;2023-10-19T02:27:56;12.40;99.90
46440;DHT22;32138;50.966;6.968;2023-10-19T02:29:27;12.40;99.90
46440;DHT22;32138;50.966;6.968;2023-10-19T02:30:59;12.40;99.90
46440;DHT22;32138;50.966;6.968;2023-10-19T02:32:41;12.40;99.90
46440;DHT22;32138;50.966;6.968;2023-10-19T02:34:12;12.40;99.90
46440;DHT22;32138;50.966;6.968;2023-10-19T02:35:45;12.40;99.90
46440;DHT22;32138;50.966;6.968;2023-10-19T02:37:18;12.50;99.90
46440;DHT22;32138;50.966;6.968;2023-10-19T02:38:49;12.50;99.90
46440;DHT22;32138;50.966;6.968;2023-10-19T02:40:21;12.50;99.90
46440;DHT22;32138;50.966;6.968;2023-10-19T02:41:54;12.50;99.90
46440;DHT22;32138;50.966;6.968;2023-10-19T02:43:26;12.60;99.90
46440;DHT22;32138;50.966;6.968;2023-10-19T02:44:57;12.70;99.90
46440;DHT22;32138;50.966;6.968;2023-10-19T02:46:28;12.70;99.90
46440;DHT22;32138;50.966;6.968;2023-10-19T02:47:59;12.60;99.90
46440;DHT22;32138;50.966;6.968;2023-10-19T02:49:30;12.60;99.90
46440;DHT22;32138;50.966;6.968;2023-10-19T02:51:01;12.70;99.90
46440;DHT22;32138;50.966;6.968;2023-10-19T02:52:39;12.70;99.90
46440;DHT22;32138;50.966;6.968;2023-10-19T02:54:18;12.70;99.90
46440;DHT22;32138;50.966;6.968;2023-10-19T02:55:50;12.80;99.90
46440;DHT22;32138;50.966;6.968;2023-10-19T02:57:21;12.70;99.90
46440;DHT22;32138;50.966;6.968;2023-10-19T02:58:52;12.80;99.90
46440;DHT22;32138;50.966;6.968;2023-10-19T03:00:23;12.70;99.90
46440;DHT22;32138;50.966;6.968;2023-10-19T03:02:02;12.60;99.90
46440;DHT22;32138;50.966;6.968;2023-10-19T03:03:39;12.60;99.90
46440;DHT22;32138;50.966;6.968;2023-10-19T03:05:10;12.70;99.90
46440;DHT22;32138;50.966;6.968;2023-10-19T03:06:44;12.80;99.90
46440;DHT22;32138;50.966;6.968;2023-10-19T03:08:15;12.80;99.90
46440;DHT22;32138;50.966;6.968;2023-10-19T03:09:46;12.70;99.90
46440;DHT22;32138;50.966;6.968;2023-10-19T03:11:20;12.70;99.90
46440;DHT22;32138;50.966;6.968;2023-10-19T03:12:51;12.70;99.90
46440;DHT22;32138;50.966;6.968;2023-10-19T03:14:22;12.80;99.90
46440;DHT22;32138;50.966;6.968;2023-10-19T03:15:56;12.90;99.90
46440;DHT22;32138;50.966;6.968;2023-10-19T03:17:27;12.80;99.90
46440;DHT22;32138;50.966;6.968;2023-10-19T03:19:00;12.90;99.90
46440;DHT22;32138;50.966;6.968;2023-10-19T03:20:31;12.80;99.90
46440;DHT22;32138;50.966;6.968;2023-10-19T03:22:03;12.70;99.90
46440;DHT22;32138;50.966;6.968;2023-10-19T03:23:36;12.80;99.90
46440;DHT22;32138;50.966;6.968;2023-10-19T03:25:08;12.80;99.90
46440;DHT22;32138;50.966;6.968;2023-10-19T03:27:03;12.80;99.90
46440;DHT22;32138;50.966;6.968;2023-10-19T03:28:52;12.80;99.90
46440;DHT22;32138;50.966;6.968;2023-10-19T03:30:25;12.90;99.90
46440;DHT22;32138;50.966;6.968;2023-10-19T03:31:56;12.90;99.90
46440;DHT22;32138;50.966;6.968;2023-10-19T03:33:27;12.80;99.90
46440;DHT22;32138;50.966;6.968;2023-10-19T03:34:58;12.80;99.90
46440;DHT22;32138;50.966;6.968;2023-10-19T03:36:30;12.90;99.90
46440;DHT22;32138;50.966;6.968;2023-10-19T03:38:03;12.80;99.90
46440;DHT22;32138;50.966;6.968;2023-10-19T03:39:38;12.80;99.90
46440;DHT22;32138;50.966;6.968;2023-10-19T03:41:09;12.80;99.90
46440;DHT22;32138;50.966;6.968;2023-10-19T03:42:41;12.80;99.90
46440;DHT22;32138;50.966;6.968;2023-10-19T03:44:11;12.80;99.90
46440;DHT22;32138;50.966;6.968;2023-10-19T03:45:54;13.00;99.90
46440;DHT22;32138;50.966;6.968;2023-10-19T03:47:25;13.00;99.90
46440;DHT22;32138;50.966;6.968;2023-10-19T03:49:02;12.90;99.90
46440;DHT22;32138;50.966;6.968;2023-10-19T03:50:41;13.00;99.90
46440;DHT22;32138;50.966;6.968;2023-10-19T03:52:13;13.00;99.90
46440;DHT22;32138;50.966;6.968;2023-10-19T03:53:44;12.90;99.90
46440;DHT22;32138;50.966;6.968;2023-10-19T03:55:19;13.00;99.90
46440;DHT22;32138;50.966;6.968;2023-10-19T03:56:49;13.00;99.90
46440;DHT22;32138;50.966;6.968;2023-10-19T03:58:23;13.00;99.90
46440;DHT22;32138;50.966;6.968;2023-10-19T03:59:53;13.00;99.90
46440;DHT22;32138;50.966;6.968;2023-10-19T04:01:27;13.10;99.90
46440;DHT22;32138;50.966;6.968;2023-10-19T04:02:58;13.00;99.90
46440;DHT22;32138;50.966;6.968;2023-10-19T04:04:29;13.10;99.90
46440;DHT22;32138;50.966;6.968;2023-10-19T04:05:59;13.10;99.90
46440;DHT22;32138;50.966;6.968;2023-10-19T04:07:31;13.10;99.90
46440;DHT22;32138;50.966;6.968;2023-10-19T04:09:03;13.10;99.90
46440;DHT22;32138;50.966;6.968;2023-10-19T04:10:36;13.10;99.90
46440;DHT22;32138;50.966;6.968;2023-10-19T04:12:07;13.10;99.90
46440;DHT22;32138;50.966;6.968;2023-10-19T04:13:41;13.10;99.90
46440;DHT22;32138;50.966;6.968;2023-10-19T04:15:11;13.00;99.90
46440;DHT22;32138;50.966;6.968;2023-10-19T04:16:49;13.00;99.90
46440;DHT22;32138;50.966;6.968;2023-10-19T04:18:20;13.00;99.90
46440;DHT22;32138;50.966;6.968;2023-10-19T04:19:51;13.00;99.90
46440;DHT22;32138;50.966;6.968;2023-10-19T04:21:22;13.00;99.90
46440;DHT22;32138;50.966;6.968;2023-10-19T04:22:53;13.00;99.90
46440;DHT22;32138;50.966;6.968;2023-10-19T04:24:24;13.00;99.90
46440;DHT22;32138;50.966;6.968;2023-10-19T04:25:55;13.00;99.90
46440;DHT22;32138;50.966;6.968;2023-10-19T04:27:34;13.00;99.90
46440;DHT22;32138;50.966;6.968;2023-10-19T04:29:07;13.10;99.90
46440;DHT22;32138;50.966;6.968;2023-10-19T04:30:41;13.10;99.90
46440;DHT22;32138;50.966;6.968;2023-10-19T04:32:13;13.10;99.90
46440;DHT22;32138;50.966;6.968;2023-10-19T04:33:45;13.10;99.90
46440;DHT22;32138;50.966;6.968;2023-10-19T04:35:17;13.10;99.90
46440;DHT22;32138;50.966;6.968;2023-10-19T04:36:53;13.10;99.90
46440;DHT22;32138;50.966;6.968;2023-10-19T04:38:24;13.10;99.90
46440;DHT22;32138;50.966;6.968;2023-10-19T04:39:55;13.10;99.90
46440;DHT22;32138;50.966;6.968;2023-10-19T04:41:26;13.20;99.90
46440;DHT22;32138;50.966;6.968;2023-10-19T04:42:58;13.20;99.90
46440;DHT22;32138;50.966;6.968;2023-10-19T04:44:30;13.20;99.90
46440;DHT22;32138;50.966;6.968;2023-10-19T04:46:07;13.30;99.90
46440;DHT22;32138;50.966;6.968;2023-10-19T04:47:41;13.30;99.90
46440;DHT22;32138;50.966;6.968;2023-10-19T04:49:12;13.30;99.90
46440;DHT22;32138;50.966;6.968;2023-10-19T04:50:43;13.20;99.90
46440;DHT22;32138;50.966;6.968;2023-10-19T04:52:13;13.20;99.90
46440;DHT22;32138;50.966;6.968;2023-10-19T04:53:44;13.30;99.90
46440;DHT22;32138;50.966;6.968;2023-10-19T04:55:15;13.30;99.90
46440;DHT22;32138;50.966;6.968;2023-10-19T04:56:46;13.20;99.90
46440;DHT22;32138;50.966;6.968;2023-10-19T04:58:16;13.20;99.90
46440;DHT22;32138;50.966;6.968;2023-10-19T04:59:47;13.20;99.90
46440;DHT22;32138;50.966;6.968;2023-10-19T05:01:18;13.20;99.90
46440;DHT22;32138;50.966;6.968;2023-10-19T05:02:49;13.30;99.90
46440;DHT22;32138;50.966;6.968;2023-10-19T05:04:22;13.30;99.90
46440;DHT22;32138;50.966;6.968;2023-10-19T05:05:53;13.20;99.90
46440;DHT22;32138;50.966;6.968;2023-10-19T05:07:25;13.20;99.90
46440;DHT22;32138;50.966;6.968;2023-10-19T05:08:57;13.30;99.90
46440;DHT22;32138;50.966;6.968;2023-10-19T05:10:27;13.30;99.90
46440;DHT22;32138;50.966;6.968;2023-10-19T05:11:59;13.30;99.90
46440;DHT22;32138;50.966;6.968;2023-10-19T05:13:31;13.30;99.90
46440;DHT22;32138;50.966;6.968;2023-10-19T05:15:03;13.30;99.90
46440;DHT22;32138;50.966;6.968;2023-10-19T05:16:36;13.40;99.90
46440;DHT22;32138;50.966;6.968;2023-10-19T05:18:06;13.30;99.90
46440;DHT22;32138;50.966;6.968;2023-10-19T05:19:38;13.30;99.90
46440;DHT22;32138;50.966;6.968;2023-10-19T05:21:09;13.40;99.90
46440;DHT22;32138;50.966;6.968;2023-10-19T05:22:40;13.40;99.90
46440;DHT22;32138;50.966;6.968;2023-10-19T05:24:11;13.40;99.90
46440;DHT22;32138;50.966;6.968;2023-10-19T05:25:42;13.30;99.90
46440;DHT22;32138;50.966;6.968;2023-10-19T05:27:12;13.30;99.90
46440;DHT22;32138;50.966;6.968;2023-10-19T05:28:43;13.30;99.90
46440;DHT22;32138;50.966;6.968;2023-10-19T05:30:14;13.30;99.90
46440;DHT22;32138;50.966;6.968;2023-10-19T05:31:45;13.30;99.90
46440;DHT22;32138;50.966;6.968;2023-10-19T05:33:16;13.30;99.90
46440;DHT22;32138;50.966;6.968;2023-10-19T05:34:50;13.30;99.90
46440;DHT22;32138;50.966;6.968;2023-10-19T05:36:21;13.30;99.90
46440;DHT22;32138;50.966;6.968;2023-10-19T05:37:52;13.30;99.90
46440;DHT22;32138;50.966;6.968;2023-10-19T05:39:23;13.30;99.90
46440;DHT22;32138;50.966;6.968;2023-10-19T05:40:58;13.30;99.90
46440;DHT22;32138;50.966;6.968;2023-10-19T05:42:32;13.40;99.90
46440;DHT22;32138;50.966;6.968;2023-10-19T05:44:05;13.40;99.90
46440;DHT22;32138;50.966;6.968;2023-10-19T05:45:35;13.40;99.90
46440;DHT22;32138;50.966;6.968;2023-10-19T05:47:06;13.40;99.90
46440;DHT22;32138;50.966;6.968;2023-10-19T05:48:38;13.40;99.90
46440;DHT22;32138;50.966;6.968;2023-10-19T05:50:09;13.50;99.90
46440;DHT22;32138;50.966;6.968;2023-10-19T05:51:44;13.50;99.90
46440;DHT22;32138;50.966;6.968;2023-10-19T05:53:15;13.50;99.90
46440;DHT22;32138;50.966;6.968;2023-10-19T05:54:48;13.40;99.90
46440;DHT22;32138;50.966;6.968;2023-10-19T05:56:24;13.40;99.90
46440;DHT22;32138;50.966;6.968;2023-10-19T05:57:55;13.40;99.90
46440;DHT22;32138;50.966;6.968;2023-10-19T05:59:26;13.50;99.90
46440;DHT22;32138;50.966;6.968;2023-10-19T06:00:59;13.50;99.90
46440;DHT22;32138;50.966;6.968;2023-10-19T06:02:30;13.50;99.90
46440;DHT22;32138;50.966;6.968;2023-10-19T06:04:00;13.50;99.90
46440;DHT22;32138;50.966;6.968;2023-10-19T06:05:31;13.50;99.90
46440;DHT22;32138;50.966;6.968;2023-10-19T06:07:02;13.40;99.90
46440;DHT22;32138;50.966;6.968;2023-10-19T06:08:33;13.40;99.90
46440;DHT22;32138;50.966;6.968;2023-10-19T06:10:04;13.40;99.90
46440;DHT22;32138;50.966;6.968;2023-10-19T06:11:37;13.50;99.90
46440;DHT22;32138;50.966;6.968;2023-10-19T06:13:13;13.50;99.90
46440;DHT22;32138;50.966;6.968;2023-10-19T06:14:43;13.50;99.90
46440;DHT22;32138;50.966;6.968;2023-10-19T06:16:15;13.50;99.90
46440;DHT22;32138;50.966;6.968;2023-10-19T06:17:45;13.50;99.90
46440;DHT22;32138;50.966;6.968;2023-10-19T06:19:16;13.50;99.90
46440;DHT22;32138;50.966;6.968;2023-10-19T06:20:47;13.50;99.90
46440;DHT22;32138;50.966;6.968;2023-10-19T06:22:21;13.50;99.90
46440;DHT22;32138;50.966;6.968;2023-10-19T06:23:52;13.60;99.90
46440;DHT22;32138;50.966;6.968;2023-10-19T06:25:24;13.60;99.90
46440;DHT22;32138;50.966;6.968;2023-10-19T06:26:55;13.60;99.90
46440;DHT22;32138;50.966;6.968;2023-10-19T06:28:25;13.60;99.90
46440;DHT22;32138;50.966;6.968;2023-10-19T06:29:56;13.50;99.90
46440;DHT22;32138;50.966;6.968;2023-10-19T06:31:27;13.60;99.90
46440;DHT22;32138;50.966;6.968;2023-10-19T06:33:00;13.60;99.90
46440;DHT22;32138;50.966;6.968;2023-10-19T06:34:31;13.60;99.90
46440;DHT22;32138;50.966;6.968;2023-10-19T06:36:03;13.60;99.90
46440;DHT22;32138;50.966;6.968;2023-10-19T06:37:34;13.60;99.90
46440;DHT22;32138;50.966;6.968;2023-10-19T06:39:05;13.60;99.90
46440;DHT22;32138;50.966;6.968;2023-10-19T06:40:36;13.60;99.90
46440;DHT22;32138;50.966;6.968;2023-10-19T06:42:08;13.60;99.90
46440;DHT22;32138;50.966;6.968;2023-10-19T06:43:44;13.70;99.90
46440;DHT22;32138;50.966;6.968;2023-10-19T06:45:17;13.70;99.90
46440;DHT22;32138;50.966;6.968;2023-10-19T06:46:49;13.70;99.90
46440;DHT22;32138;50.966;6.968;2023-10-19T06:48:20;13.60;99.90
46440;DHT22;32138;50.966;6.968;2023-10-19T06:49:51;13.60;99.90
46440;DHT22;32138;50.966;6.968;2023-10-19T06:51:21;13.60;99.90
46440;DHT22;32138;50.966;6.968;2023-10-19T06:52:53;13.60;99.90
46440;DHT22;32138;50.966;6.968;2023-10-19T06:54:27;13.70;99.90
46440;DHT22;32138;50.966;6.968;2023-10-19T06:56:00;13.70;99.90
46440;DHT22;32138;50.966;6.968;2023-10-19T06:57:31;13.70;99.90
46440;DHT22;32138;50.966;6.968;2023-10-19T06:59:04;13.70;99.90
46440;DHT22;32138;50.966;6.968;2023-10-19T07:00:35;13.80;99.90
46440;DHT22;32138;50.966;6.968;2023-10-19T07:02:12;13.80;99.90
46440;DHT22;32138;50.966;6.968;2023-10-19T07:03:44;13.80;99.90
46440;DHT22;32138;50.966;6.968;2023-10-19T07:05:15;13.80;99.90
46440;DHT22;32138;50.966;6.968;2023-10-19T07:06:49;13.80;99.90
46440;DHT22;32138;50.966;6.968;2023-10-19T07:08:21;13.80;99.90
46440;DHT22;32138;50.966;6.968;2023-10-19T07:09:51;13.80;99.90
46440;DHT22;32138;50.966;6.968;2023-10-19T07:11:22;13.80;99.90
46440;DHT22;32138;50.966;6.968;2023-10-19T07:12:55;13.90;99.90
46440;DHT22;32138;50.966;6.968;2023-10-19T07:14:26;13.80;99.90
46440;DHT22;32138;50.966;6.968;2023-10-19T07:15:57;13.80;99.90
46440;DHT22;32138;50.966;6.968;2023-10-19T07:17:29;13.80;99.90
46440;DHT22;32138;50.966;6.968;2023-10-19T07:18:59;13.90;99.90
46440;DHT22;32138;50.966;6.968;2023-10-19T07:20:30;13.90;99.90
46440;DHT22;32138;50.966;6.968;2023-10-19T07:22:08;13.90;99.90
46440;DHT22;32138;50.966;6.968;2023-10-19T07:23:40;13.90;99.90
46440;DHT22;32138;50.966;6.968;2023-10-19T07:25:11;13.90;99.90
46440;DHT22;32138;50.966;6.968;2023-10-19T07:26:41;13.90;99.90
46440;DHT22;32138;50.966;6.968;2023-10-19T07:28:23;13.90;99.90
46440;DHT22;32138;50.966;6.968;2023-10-19T07:29:56;14.00;99.90
46440;DHT22;32138;50.966;6.968;2023-10-19T07:31:27;14.00;99.90
46440;DHT22;32138;50.966;6.968;2023-10-19T07:32:58;14.00;99.90
46440;DHT22;32138;50.966;6.968;2023-10-19T07:34:32;14.10;99.90
46440;DHT22;32138;50.966;6.968;2023-10-19T07:36:03;14.00;99.90
46440;DHT22;32138;50.966;6.968;2023-10-19T07:37:38;14.00;99.90
46440;DHT22;32138;50.966;6.968;2023-10-19T07:39:09;14.00;99.90
46440;DHT22;32138;50.966;6.968;2023-10-19T07:40:49;14.00;99.90
46440;DHT22;32138;50.966;6.968;2023-10-19T07:42:23;14.10;99.90
46440;DHT22;32138;50.966;6.968;2023-10-19T07:43:55;14.10;99.90
46440;DHT22;32138;50.966;6.968;2023-10-19T07:45:26;14.10;99.90
46440;DHT22;32138;50.966;6.968;2023-10-19T07:46:57;14.10;99.90
46440;DHT22;32138;50.966;6.968;2023-10-19T07:48:29;14.20;99.90
46440;DHT22;32138;50.966;6.968;2023-10-19T07:49:59;14.20;99.90
46440;DHT22;32138;50.966;6.968;2023-10-19T07:51:33;14.20;99.90
46440;DHT22;32138;50.966;6.968;2023-10-19T07:53:04;14.10;99.90
46440;DHT22;32138;50.966;6.968;2023-10-19T07:54:35;14.20;99.90
46440;DHT22;32138;50.966;6.968;2023-10-19T07:56:06;14.20;99.90
46440;DHT22;32138;50.966;6.968;2023-10-19T07:57:37;14.20;99.90
46440;DHT22;32138;50.966;6.968;2023-10-19T07:59:09;14.30;99.90
46440;DHT22;32138;50.966;6.968;2023-10-19T08:00:39;14.30;99.90
46440;DHT22;32138;50.966;6.968;2023-10-19T08:02:12;14.30;99.90
46440;DHT22;32138;50.966;6.968;2023-10-19T08:03:43;14.20;99.90
46440;DHT22;32138;50.966;6.968;2023-10-19T08:05:15;14.20;99.90
46440;DHT22;32138;50.966;6.968;2023-10-19T08:06:48;14.30;99.90
46440;DHT22;32138;50.966;6.968;2023-10-19T08:08:20;14.40;99.90
46440;DHT22;32138;50.966;6.968;2023-10-19T08:09:51;14.40;99.90
46440;DHT22;32138;50.966;6.968;2023-10-19T08:11:22;14.40;99.90
46440;DHT22;32138;50.966;6.968;2023-10-19T08:12:52;14.40;99.90
46440;DHT22;32138;50.966;6.968;2023-10-19T08:14:23;14.50;99.90
46440;DHT22;32138;50.966;6.968;2023-10-19T08:15:55;14.50;99.90
46440;DHT22;32138;50.966;6.968;2023-10-19T08:17:26;14.50;99.90
46440;DHT22;32138;50.966;6.968;2023-10-19T08:18:57;14.60;99.90
46440;DHT22;32138;50.966;6.968;2023-10-19T08:20:28;14.60;99.90
46440;DHT22;32138;50.966;6.968;2023-10-19T08:22:02;14.60;99.90
46440;DHT22;32138;50.966;6.968;2023-10-19T08:23:32;14.50;99.90
46440;DHT22;32138;50.966;6.968;2023-10-19T08:25:04;14.60;99.90
46440;DHT22;32138;50.966;6.968;2023-10-19T08:26:41;14.60;99.90
46440;DHT22;32138;50.966;6.968;2023-10-19T08:28:12;14.70;99.90
46440;DHT22;32138;50.966;6.968;2023-10-19T08:29:44;14.60;99.90
46440;DHT22;32138;50.966;6.968;2023-10-19T08:31:17;14.70;99.90
46440;DHT22;32138;50.966;6.968;2023-10-19T08:32:48;14.80;99.90
46440;DHT22;32138;50.966;6.968;2023-10-19T08:34:19;14.90;99.90
46440;DHT22;32138;50.966;6.968;2023-10-19T08:35:51;14.90;99.90
46440;DHT22;32138;50.966;6.968;2023-10-19T08:37:24;15.00;99.90
46440;DHT22;32138;50.966;6.968;2023-10-19T08:38:56;15.00;99.90
46440;DHT22;32138;50.966;6.968;2023-10-19T08:40:27;15.00;99.90
46440;DHT22;32138;50.966;6.968;2023-10-19T08:41:58;15.10;99.90
46440;DHT22;32138;50.966;6.968;2023-10-19T08:43:30;15.30;99.90
46440;DHT22;32138;50.966;6.968;2023-10-19T08:45:04;15.60;99.90
46440;DHT22;32138;50.966;6.968;2023-10-19T08:46:43;16.50;99.90
46440;DHT22;32138;50.966;6.968;2023-10-19T08:48:14;17.90;99.90
46440;DHT22;32138;50.966;6.968;2023-10-19T08:49:45;18.10;99.90
46440;DHT22;32138;50.966;6.968;2023-10-19T08:51:17;18.30;99.90
46440;DHT22;32138;50.966;6.968;2023-10-19T08:52:52;18.40;99.90
46440;DHT22;32138;50.966;6.968;2023-10-19T08:54:24;17.90;99.90
46440;DHT22;32138;50.966;6.968;2023-10-19T08:55:56;17.90;99.90
46440;DHT22;32138;50.966;6.968;2023-10-19T08:57:27;18.00;99.90
46440;DHT22;32138;50.966;6.968;2023-10-19T08:59:00;18.10;99.90
46440;DHT22;32138;50.966;6.968;2023-10-19T09:00:51;17.60;99.90
46440;DHT22;32138;50.966;6.968;2023-10-19T09:02:24;17.20;99.90
46440;DHT22;32138;50.966;6.968;2023-10-19T09:03:58;17.20;99.90
46440;DHT22;32138;50.966;6.968;2023-10-19T09:05:30;17.20;99.90
46440;DHT22;32138;50.966;6.968;2023-10-19T09:07:00;17.30;99.90
46440;DHT22;32138;50.966;6.968;2023-10-19T09:08:40;17.40;99.90
46440;DHT22;32138;50.966;6.968;2023-10-19T09:10:11;17.50;99.90
46440;DHT22;32138;50.966;6.968;2023-10-19T09:11:47;17.60;99.90
46440;DHT22;32138;50.966;6.968;2023-10-19T09:13:21;17.70;99.90
46440;DHT22;32138;50.966;6.968;2023-10-19T09:14:53;17.90;99.90
46440;DHT22;32138;50.966;6.968;2023-10-19T09:16:23;17.90;99.90
46440;DHT22;32138;50.966;6.968;2023-10-19T09:17:54;18.20;99.90
46440;DHT22;32138;50.966;6.968;2023-10-19T09:19:45;18.40;99.90
46440;DHT22;32138;50.966;6.968;2023-10-19T09:21:20;18.50;99.90
46440;DHT22;32138;50.966;6.968;2023-10-19T09:22:58;18.10;99.90
46440;DHT22;32138;50.966;6.968;2023-10-19T09:24:28;17.80;99.90
46440;DHT22;32138;50.966;6.968;2023-10-19T09:26:02;17.80;99.90
46440;DHT22;32138;50.966;6.968;2023-10-19T09:27:33;17.80;99.90
46440;DHT22;32138;50.966;6.968;2023-10-19T09:29:04;17.60;99.90
46440;DHT22;32138;50.966;6.968;2023-10-19T09:30:35;17.50;99.90
46440;DHT22;32138;50.966;6.968;2023-10-19T09:32:07;17.50;99.90
46440;DHT22;32138;50.966;6.968;2023-10-19T09:33:40;17.50;99.90
46440;DHT22;32138;50.966;6.968;2023-10-19T09:35:11;17.40;99.90
46440;DHT22;32138;50.966;6.968;2023-10-19T09:36:45;17.40;99.90
46440;DHT22;32138;50.966;6.968;2023-10-19T09:38:16;17.40;99.90
46440;DHT22;32138;50.966;6.968;2023-10-19T09:39:55;17.50;99.90
46440;DHT22;32138;50.966;6.968;2023-10-19T09:41:28;17.70;99.90
46440;DHT22;32138;50.966;6.968;2023-10-19T09:43:03;17.70;99.90
46440;DHT22;32138;50.966;6.968;2023-10-19T09:44:55;17.70;99.90
46440;DHT22;32138;50.966;6.968;2023-10-19T09:46:37;17.70;99.90
46440;DHT22;32138;50.966;6.968;2023-10-19T09:48:09;17.70;99.90